Terminal Aerodrome Forecast
Issued by NWS Blacksburg, VA

Current Version | Previous Version | Text Only | Print | Product List | Glossary Off
Versions: 1 2 3 4 5 6 7 8 9 10 11 12 13 14 15 16 17 18 19 20 21 22 23 24 25 26 27 28 29 30 31 32 33 34 35 36 37 38 39

000
FTUS41 KRNK 130233 AAA
TAFBLF
TAF AMD
KBLF 130233Z 1303/1324 30018G32KT 1 1/2SM -SHSN OVC012
      TEMPO 1303/1307 1/2SM SHSN VV005
     FM131000 30012G25KT 4SM -SHSN OVC012
     FM132100 29010G18KT P6SM -SHSN OVC020=

USA.gov is the U.S. government's official web portal to all federal, state and local government web resources and services.